Time;durP1;ratioP1;P1;durP2;ratioP2;P2;SDS_P1;SDS_P2;PMS_P1;PMS_P2;Temp;Humidity;BMP_temperature;BMP_pressure;BME280_temperature;BME280_humidity;BME280_pressure;Samples;Min_cycle;Max_cycle;Signal;HPM_P1;HPM_P2
2021/06/28 00:00:28;;;;;;;6.60;5.50;;;;;;;18.62;52.22;100144.85;126818;1090;113160;-83
2021/06/28 00:03:22;;;;;;;6.70;5.53;;;;;;;18.58;52.81;100145.17;126866;1090;104460;-83
2021/06/28 00:06:10;;;;;;;7.67;5.70;;;;;;;18.56;52.93;100150.55;126868;1090;114497;-83
2021/06/28 00:08:58;;;;;;;6.10;5.23;;;;;;;18.56;53.21;100149.71;126831;1090;103905;-83
2021/06/28 00:11:46;;;;;;;9.37;6.40;;;;;;;18.57;53.45;100160.17;126906;1090;113556;-83
2021/06/28 00:14:34;;;;;;;8.43;6.50;;;;;;;18.60;53.44;100152.03;126978;1089;102966;-84
2021/06/28 00:17:22;;;;;;;7.30;6.43;;;;;;;18.56;53.38;100152.35;126774;1089;114430;-83
2021/06/28 00:20:11;;;;;;;8.87;6.47;;;;;;;18.57;53.40;100154.89;127045;1090;102682;-84
2021/06/28 00:23:01;;;;;;;8.77;6.60;;;;;;;18.54;54.35;100148.97;126826;1090;114395;-83
2021/06/28 00:25:49;;;;;;;7.50;6.43;;;;;;;18.51;54.01;100157.10;126960;1090;102873;-83
2021/06/28 00:28:37;;;;;;;8.10;6.43;;;;;;;18.43;53.69;100154.95;126848;1090;102848;-83
2021/06/28 00:31:25;;;;;;;8.30;6.47;;;;;;;18.38;54.24;100149.98;126832;1090;114186;-83
2021/06/28 00:34:13;;;;;;;8.87;6.83;;;;;;;18.32;54.39;100149.55;126940;1090;101035;-83
2021/06/28 00:37:03;;;;;;;8.20;6.37;;;;;;;18.29;54.69;100150.57;126827;1090;115429;-83
2021/06/28 00:39:51;;;;;;;8.80;6.90;;;;;;;18.22;54.26;100148.45;126815;1090;102953;-83
2021/06/28 00:42:40;;;;;;;8.87;6.53;;;;;;;18.19;54.99;100156.57;126839;1090;114508;-84
2021/06/28 00:45:33;;;;;;;8.23;6.47;;;;;;;18.18;55.24;100154.88;126970;1090;102897;-83
2021/06/28 00:48:22;;;;;;;8.93;6.47;;;;;;;18.15;55.26;100153.28;126757;1089;114329;-83
2021/06/28 00:51:10;;;;;;;8.53;6.50;;;;;;;18.12;55.18;100159.59;126809;1089;103300;-83
2021/06/28 00:53:58;;;;;;;8.43;6.37;;;;;;;18.12;55.46;100164.86;126916;1088;114529;-83
2021/06/28 00:56:46;;;;;;;8.27;6.63;;;;;;;18.10;55.25;100150.92;126842;1090;102850;-83
2021/06/28 00:59:35;;;;;;;7.97;6.20;;;;;;;18.09;55.55;100149.23;126762;1089;114453;-83
2021/06/28 01:02:23;;;;;;;8.37;6.57;;;;;;;18.02;55.64;100158.50;127011;1090;103014;-83
2021/06/28 01:05:16;;;;;;;9.07;6.30;;;;;;;17.97;55.43;100159.75;126724;1089;114260;-82
2021/06/28 01:08:05;;;;;;;7.03;6.03;;;;;;;17.88;56.29;100155.05;126880;1090;102878;-83
2021/06/28 01:10:54;;;;;;;6.63;5.93;;;;;;;17.84;56.27;100146.48;126833;1090;102946;-83
2021/06/28 01:13:45;;;;;;;6.60;5.87;;;;;;;17.78;56.16;100146.89;126809;1090;102983;-83
2021/06/28 01:16:33;;;;;;;8.60;6.00;;;;;;;17.76;56.42;100146.11;126816;1089;102967;-83
2021/06/28 01:19:26;;;;;;;8.30;6.60;;;;;;;17.77;56.38;100142.52;126769;1088;113337;-83
2021/06/28 01:22:20;;;;;;;7.70;6.47;;;;;;;17.79;56.52;100145.94;126888;1090;102272;-83
2021/06/28 01:25:12;;;;;;;7.33;6.37;;;;;;;17.77;56.34;100137.25;126728;1090;114381;-83
2021/06/28 01:28:00;;;;;;;6.80;6.10;;;;;;;17.71;56.60;100145.56;126881;1090;103178;-83
2021/06/28 01:30:47;;;;;;;;;;;;;;;17.70;56.75;100146.50;126800;1090;114435;-83
2021/06/28 01:33:36;;;;;;;7.63;6.27;;;;;;;17.69;56.87;100144.81;126887;1090;102921;-83
2021/06/28 01:36:24;;;;;;;7.80;6.90;;;;;;;17.63;56.78;100142.55;126727;1090;114423;-83
2021/06/28 01:39:12;;;;;;;8.77;6.50;;;;;;;17.59;56.99;100135.74;126857;1089;103007;-83
2021/06/28 01:42:01;;;;;;;9.43;7.10;;;;;;;17.55;57.21;100135.09;126698;1090;114577;-83
2021/06/28 01:44:50;;;;;;;8.03;7.07;;;;;;;17.55;57.30;100135.09;126855;1089;103307;-83
2021/06/28 01:47:41;;;;;;;8.77;7.33;;;;;;;17.50;57.64;100135.39;126820;1090;114452;-83
2021/06/28 01:50:32;;;;;;;9.10;6.83;;;;;;;17.50;57.55;100132.75;126902;1088;102999;-83
2021/06/28 01:53:20;;;;;;;8.53;6.77;;;;;;;17.48;57.48;100131.16;126803;1089;102887;-84
2021/06/28 01:56:08;;;;;;;8.63;7.00;;;;;;;17.47;57.84;100125.04;126883;1090;114127;-83
2021/06/28 01:58:56;;;;;;;8.63;7.10;;;;;;;17.44;57.71;100124.39;126821;1090;102884;-83
2021/06/28 02:01:44;;;;;;;10.43;7.23;;;;;;;17.43;58.00;100126.18;126939;1090;114415;-83
2021/06/28 02:04:32;;;;;;;8.80;7.07;;;;;;;17.45;57.92;100126.93;126858;1090;101747;-83
2021/06/28 02:07:24;;;;;;;8.97;6.17;;;;;;;17.46;58.11;100125.14;126795;1090;114282;-83
2021/06/28 02:10:12;;;;;;;10.03;6.93;;;;;;;17.48;58.07;100123.25;126993;1088;102865;-82
2021/06/28 02:13:00;;;;;;;9.10;7.40;;;;;;;17.47;57.92;100130.31;126807;1089;114949;-83
2021/06/28 02:15:49;;;;;;;8.53;7.33;;;;;;;17.45;58.11;100126.08;126934;1089;102843;-83
2021/06/28 02:18:37;;;;;;;10.90;7.30;;;;;;;17.42;58.20;100129.77;126884;1089;113265;-83
2021/06/28 02:21:30;;;;;;;8.53;7.20;;;;;;;17.38;58.07;100130.02;126845;1090;102910;-83
2021/06/28 02:24:19;;;;;;;8.90;7.33;;;;;;;17.35;58.37;100123.16;126725;1089;114442;-83
2021/06/28 02:27:07;;;;;;;10.27;7.27;;;;;;;17.31;58.15;100124.30;126805;1089;103749;-83
2021/06/28 02:29:54;;;;;;;8.63;7.03;;;;;;;17.29;58.62;100126.19;126762;1089;114660;-83
2021/06/28 02:32:44;;;;;;;8.13;7.07;;;;;;;17.29;58.52;100120.06;126865;1090;102990;-85
2021/06/28 02:35:31;;;;;;;10.33;7.23;;;;;;;17.29;58.59;100120.91;126826;1088;102852;-83
2021/06/28 02:38:21;;;;;;;7.97;6.70;;;;;;;17.27;58.49;100124.59;126690;1090;114277;-83
2021/06/28 02:41:10;;;;;;;9.20;7.53;;;;;;;17.29;58.46;100115.64;126922;1090;102862;-83
2021/06/28 02:43:58;;;;;;;9.03;7.37;;;;;;;17.29;58.74;100127.97;126643;1088;114579;-84
2021/06/28 02:46:46;;;;;;;9.33;7.00;;;;;;;17.28;58.70;100121.85;126875;1090;102869;-84
2021/06/28 02:49:33;;;;;;;10.00;8.37;;;;;;;17.27;58.54;100117.53;126713;1090;114304;-83
2021/06/28 02:52:22;;;;;;;12.13;7.73;;;;;;;17.28;58.72;100113.95;126816;1090;103025;-84
2021/06/28 02:55:13;;;;;;;10.07;7.10;;;;;;;17.26;58.63;100114.98;126765;1089;114451;-83
2021/06/28 02:58:01;;;;;;;8.40;7.47;;;;;;;17.20;58.74;100111.77;126994;1089;102885;-84
2021/06/28 03:00:49;;;;;;;9.13;7.33;;;;;;;17.19;58.85;100120.61;126807;1090;114449;-84
2021/06/28 03:03:37;;;;;;;8.53;7.00;;;;;;;17.18;58.66;100111.02;126792;1088;102906;-84
2021/06/28 03:06:25;;;;;;;9.07;7.67;;;;;;;17.15;58.85;100113.84;126768;1089;114220;-83
2021/06/28 03:09:13;;;;;;;9.83;7.63;;;;;;;17.14;58.87;100116.58;126954;1088;101265;-84
2021/06/28 03:12:01;;;;;;;9.90;7.40;;;;;;;17.15;59.02;100113.84;126728;1090;113402;-83
2021/06/28 03:14:49;;;;;;;8.60;7.33;;;;;;;17.16;58.94;100114.69;126827;1089;102964;-83
2021/06/28 03:17:38;;;;;;;8.73;7.30;;;;;;;17.20;58.86;100118.83;126790;1090;102864;-83
2021/06/28 03:20:26;;;;;;;8.47;6.70;;;;;;;17.20;58.85;100126.73;126620;1090;114167;-83
2021/06/28 03:23:13;;;;;;;7.97;7.17;;;;;;;17.25;58.97;100118.56;126832;1089;102903;-83
2021/06/28 03:26:01;;;;;;;9.63;7.07;;;;;;;17.32;58.85;100118.08;126725;1089;114331;-83
2021/06/28 03:28:49;;;;;;;11.33;7.03;;;;;;;17.40;59.15;100114.95;126925;1088;102993;-83
2021/06/28 03:31:38;;;;;;;8.20;7.00;;;;;;;17.46;58.60;100117.23;126701;1090;114550;-83
2021/06/28 03:34:26;;;;;;;8.80;7.37;;;;;;;17.52;58.56;100117.68;126751;1090;103044;-83
2021/06/28 03:37:14;;;;;;;8.47;6.93;;;;;;;17.51;58.43;100126.53;126881;1090;113300;-83
2021/06/28 03:40:01;;;;;;;;;;;;;;;17.51;58.35;100121.27;127015;1089;103441;-83
2021/06/28 03:42:49;;;;;;;7.83;6.83;;;;;;;17.53;58.43;100129.08;126714;1090;102962;-83
2021/06/28 03:45:39;;;;;;;8.17;7.00;;;;;;;17.55;58.51;100131.61;126897;1090;102840;-84
2021/06/28 03:48:28;;;;;;;8.87;6.67;;;;;;;17.56;58.38;100128.03;126738;1088;114695;-83
2021/06/28 03:51:16;;;;;;;8.27;7.03;;;;;;;17.56;58.29;100126.23;126828;1090;103182;-83
2021/06/28 03:54:03;;;;;;;;;;;;;;;17.58;58.31;100126.14;126790;1088;114633;-83
2021/06/28 03:56:52;;;;;;;7.90;6.90;;;;;;;17.60;58.30;100129.55;127057;1090;102936;-83
2021/06/28 03:59:40;;;;;;;10.80;7.43;;;;;;;17.68;58.13;100122.87;126997;1088;102916;-83
2021/06/28 04:02:31;;;;;;;10.47;7.43;;;;;;;17.73;57.78;100119.93;126680;1089;114317;-83
2021/06/28 04:05:21;;;;;;;8.93;7.23;;;;;;;17.75;58.20;100118.04;126914;1089;102904;-83
2021/06/28 04:08:09;;;;;;;10.03;6.90;;;;;;;17.79;58.23;100115.13;126832;1090;113221;-83
2021/06/28 04:10:59;;;;;;;11.37;7.17;;;;;;;17.81;58.22;100107.11;126928;1089;103065;-83
2021/06/28 04:13:47;;;;;;;10.23;7.70;;;;;;;17.85;58.26;100108.61;126840;1090;114953;-83
2021/06/28 04:16:35;;;;;;;8.20;7.10;;;;;;;17.87;58.18;100109.34;126862;1090;103013;-83
2021/06/28 04:19:24;;;;;;;9.97;7.50;;;;;;;17.95;58.29;100112.32;126844;1089;113539;-83
2021/06/28 04:22:13;;;;;;;8.17;6.77;;;;;;;18.01;58.02;100108.47;126880;1089;102887;-84
2021/06/28 04:25:06;;;;;;;8.10;7.20;;;;;;;18.07;58.21;100114.17;126972;1089;114672;-84
2021/06/28 04:27:56;;;;;;;8.03;7.13;;;;;;;18.16;57.93;100118.02;127054;1090;102946;-84
2021/06/28 04:30:45;;;;;;;12.13;6.90;;;;;;;18.20;57.89;100123.94;126784;1089;113529;-84
2021/06/28 04:33:33;;;;;;;8.93;7.67;;;;;;;18.25;57.97;100125.33;126931;1090;102949;-83
2021/06/28 04:36:22;;;;;;;8.00;7.20;;;;;;;18.32;57.94;100128.43;126851;1090;114488;-83
2021/06/28 04:39:10;;;;;;;8.93;7.30;;;;;;;18.40;57.64;100126.11;126915;1089;103094;-83
2021/06/28 04:41:59;;;;;;;8.53;7.10;;;;;;;18.48;57.59;100136.16;126837;1089;102891;-83
2021/06/28 04:44:47;;;;;;;9.43;6.87;;;;;;;18.55;57.26;100129.53;126782;1089;114323;-83
2021/06/28 04:47:36;;;;;;;9.57;7.43;;;;;;;18.64;57.38;100128.93;126835;1089;102927;-83
2021/06/28 04:50:26;;;;;;;8.47;7.57;;;;;;;18.74;57.52;100129.17;126891;1089;114524;-84
2021/06/28 04:53:15;;;;;;;10.00;7.70;;;;;;;18.81;57.50;100133.08;126877;1089;102821;-83
2021/06/28 04:56:04;;;;;;;8.53;7.33;;;;;;;18.89;57.06;100131.62;126809;1090;113441;-83
2021/06/28 04:58:53;;;;;;;8.20;6.70;;;;;;;19.01;57.53;100132.55;126923;1090;102885;-84
2021/06/28 05:01:41;;;;;;;10.07;6.93;;;;;;;19.11;57.29;100138.06;126769;1090;114301;-84
2021/06/28 05:04:31;;;;;;;8.73;7.07;;;;;;;19.23;56.78;100138.07;126944;1088;102969;-83
2021/06/28 05:07:19;;;;;;;8.23;6.27;;;;;;;19.38;57.33;100148.50;126881;1090;114504;-83
2021/06/28 05:10:07;;;;;;;8.87;7.20;;;;;;;19.51;56.88;100139.61;126942;1088;102915;-84
2021/06/28 05:12:56;;;;;;;7.60;6.37;;;;;;;19.68;56.83;100143.73;126853;1089;114566;-83
2021/06/28 05:15:43;;;;;;;10.13;6.93;;;;;;;19.88;56.94;100137.00;126939;1090;102833;-83
2021/06/28 05:18:31;;;;;;;9.00;6.43;;;;;;;20.06;56.63;100148.05;126711;1089;114580;-83
2021/06/28 05:21:20;;;;;;;9.20;6.43;;;;;;;20.26;56.31;100139.48;126952;1089;102965;-84
2021/06/28 05:24:08;;;;;;;8.40;6.33;;;;;;;20.53;55.95;100149.04;127049;1090;102937;-83
2021/06/28 05:26:57;;;;;;;15.17;6.40;;;;;;;20.84;55.56;100144.92;126713;1089;114553;-83
2021/06/28 05:29:45;;;;;;;11.33;9.07;;;;;;;21.18;54.85;100148.45;127127;1089;103000;-83
2021/06/28 05:32:35;;;;;;;9.00;7.47;;;;;;;21.55;54.79;100157.92;126834;1090;113588;-83
2021/06/28 05:35:25;;;;;;;6.17;5.57;;;;;;;21.88;53.65;100146.39;127059;1090;103319;-84
2021/06/28 05:38:13;;;;;;;7.57;6.13;;;;;;;22.20;53.10;100149.13;126762;1090;113454;-85
2021/06/28 05:41:01;;;;;;;6.50;5.10;;;;;;;22.49;52.84;100151.20;126919;1090;102898;-83
2021/06/28 05:43:49;;;;;;;6.13;5.20;;;;;;;22.84;52.21;100153.59;126853;1090;113255;-83
2021/06/28 05:46:37;;;;;;;7.50;5.40;;;;;;;23.22;52.00;100147.66;126899;1090;103187;-83
2021/06/28 05:49:26;;;;;;;6.47;5.33;;;;;;;23.55;51.40;100148.36;126825;1088;113227;-83
2021/06/28 05:52:19;;;;;;;6.77;5.73;;;;;;;23.97;51.05;100147.23;126919;1090;101999;-84
2021/06/28 05:55:11;;;;;;;9.60;6.57;;;;;;;24.46;50.14;100150.83;126684;1090;114375;-83
2021/06/28 05:57:59;;;;;;;7.90;5.90;;;;;;;24.85;49.72;100150.79;126908;1090;102895;-83
2021/06/28 06:00:47;;;;;;;8.47;5.83;;;;;;;25.53;48.37;100154.97;126831;1090;114667;-84
2021/06/28 06:03:36;;;;;;;7.07;5.30;;;;;;;27.10;46.91;100155.38;126912;1090;102884;-84
2021/06/28 06:06:24;;;;;;;6.83;5.47;;;;;;;29.18;43.76;100159.93;126868;1089;102874;-83
2021/06/28 06:09:12;;;;;;;7.73;6.10;;;;;;;31.09;41.43;100151.27;126769;1088;113264;-83
2021/06/28 06:12:00;;;;;;;7.40;5.30;;;;;;;32.66;38.54;100146.13;126925;1090;102877;-83
2021/06/28 06:14:47;;;;;;;6.43;4.80;;;;;;;33.91;36.42;100162.36;126771;1090;113917;-83
2021/06/28 06:17:35;;;;;;;6.30;4.50;;;;;;;35.22;34.63;100154.61;126908;1089;101557;-83
2021/06/28 06:20:24;;;;;;;8.43;5.07;;;;;;;36.51;32.72;100146.33;126770;1088;114532;-83
2021/06/28 06:23:13;;;;;;;7.40;4.33;;;;;;;37.43;30.54;100151.98;126827;1088;102938;-83
2021/06/28 06:26:00;;;;;;;4.60;4.00;;;;;;;38.21;29.04;100157.48;126847;1089;114398;-83
2021/06/28 06:28:48;;;;;;;7.33;4.50;;;;;;;38.84;28.31;100153.38;126988;1090;102913;-84
2021/06/28 06:31:36;;;;;;;7.67;4.53;;;;;;;39.62;27.75;100149.42;126879;1089;115096;-84
2021/06/28 06:34:24;;;;;;;8.40;4.80;;;;;;;40.28;25.92;100156.17;126915;1089;103182;-84
2021/06/28 06:37:12;;;;;;;8.20;4.70;;;;;;;40.73;24.79;100156.13;126701;1090;114553;-84
2021/06/28 06:40:00;;;;;;;6.00;4.67;;;;;;;40.95;24.73;100158.98;126882;1088;103480;-84
2021/06/28 06:42:48;;;;;;;8.70;4.07;;;;;;;41.20;24.00;100153.86;126752;1089;113347;-84
2021/06/28 06:45:36;;;;;;;5.00;4.13;;;;;;;41.22;23.72;100153.60;126948;1088;102876;-84
2021/06/28 06:48:24;;;;;;;7.37;4.20;;;;;;;41.67;23.25;100161.65;126885;1090;102847;-84
2021/06/28 06:51:12;;;;;;;4.27;3.83;;;;;;;42.05;22.30;100165.34;126799;1088;113024;-84
2021/06/28 06:54:00;;;;;;;6.77;4.40;;;;;;;42.21;22.13;100167.19;126912;1089;103126;-85
2021/06/28 06:56:49;;;;;;;4.53;3.60;;;;;;;42.68;21.71;100166.51;126832;1090;113174;-84
2021/06/28 06:59:37;;;;;;;4.40;4.00;;;;;;;42.92;21.69;100169.75;126973;1088;102900;-84
2021/06/28 07:02:25;;;;;;;5.50;3.90;;;;;;;43.04;21.30;100171.18;126887;1090;114369;-84
2021/06/28 07:05:15;;;;;;;4.63;3.33;;;;;;;43.26;21.13;100173.77;126909;1090;102748;-84
2021/06/28 07:08:04;;;;;;;4.87;3.60;;;;;;;43.43;20.24;100176.36;126867;1090;114537;-83
2021/06/28 07:10:52;;;;;;;4.73;3.60;;;;;;;43.73;20.24;100177.61;126948;1090;102945;-83
2021/06/28 07:13:49;;;;;;;4.17;3.20;;;;;;;43.75;19.83;100180.91;126899;1089;114344;-84
2021/06/28 07:16:38;;;;;;;3.77;3.30;;;;;;;43.56;19.72;100175.88;126989;1089;102154;-83
2021/06/28 07:19:26;;;;;;;5.27;3.87;;;;;;;43.79;19.43;100176.52;126718;1090;114685;-82
2021/06/28 07:22:17;;;;;;;3.57;3.07;;;;;;;43.79;19.22;100174.60;126855;1089;103038;-84
2021/06/28 07:25:08;;;;;;;5.63;4.13;;;;;;;43.80;19.19;100181.75;126930;1090;113361;-83
2021/06/28 07:27:58;;;;;;;7.63;3.70;;;;;;;43.82;19.31;100181.50;126890;1090;102858;-83
2021/06/28 07:30:46;;;;;;;3.83;2.80;;;;;;;43.89;18.56;100182.89;126853;1090;102945;-83
2021/06/28 07:33:38;;;;;;;3.03;2.67;;;;;;;43.89;18.48;100188.38;126889;1090;103039;-83
2021/06/28 07:36:27;;;;;;;5.37;2.93;;;;;;;44.03;18.40;100182.38;126885;1090;102886;-83
2021/06/28 07:39:15;;;;;;;3.03;2.60;;;;;;;44.14;18.10;100176.64;126892;1089;114289;-83
2021/06/28 07:42:03;;;;;;;3.03;2.60;;;;;;;44.33;17.97;100176.94;126876;1090;102916;-83
2021/06/28 07:44:50;;;;;;;5.20;2.87;;;;;;;44.31;18.07;100171.71;126796;1090;113279;-83
2021/06/28 07:47:38;;;;;;;2.80;2.50;;;;;;;44.45;18.32;100179.42;126963;1090;102858;-83
2021/06/28 07:50:26;;;;;;;2.87;2.20;;;;;;;44.55;18.08;100180.30;126745;1089;114444;-84
2021/06/28 07:53:15;;;;;;;2.87;2.30;;;;;;;44.67;17.47;100166.23;126847;1090;102868;-83
2021/06/28 07:56:14;;;;;;;2.30;2.10;;;;;;;44.48;17.30;100168.72;126781;1088;113329;-83
2021/06/28 07:59:02;;;;;;;2.97;2.60;;;;;;;44.44;17.53;100170.35;126894;1089;102863;-83
2021/06/28 08:01:51;;;;;;;4.80;3.00;;;;;;;44.30;17.01;100164.56;126706;1090;114620;-84
2021/06/28 08:04:39;;;;;;;2.73;2.40;;;;;;;44.19;17.35;100165.67;126878;1088;103038;-83
2021/06/28 08:07:29;;;;;;;3.07;2.13;;;;;;;44.10;17.17;100161.80;126761;1090;114690;-83
2021/06/28 08:10:21;;;;;;;4.53;2.70;;;;;;;44.17;17.07;100159.63;127030;1089;102798;-83
2021/06/28 08:13:09;;;;;;;3.93;2.80;;;;;;;43.89;17.19;100168.33;126844;1090;102907;-83
2021/06/28 08:15:57;;;;;;;5.70;3.47;;;;;;;43.82;17.85;100162.27;126982;1090;114091;-83
2021/06/28 08:18:51;;;;;;;3.10;2.67;;;;;;;43.70;17.71;100165.25;126865;1090;102844;-83
2021/06/28 08:21:54;;;;;;;3.63;3.27;;;;;;;42.80;17.76;100157.02;126785;1090;113157;-83
2021/06/28 08:24:42;;;;;;;2.97;2.67;;;;;;;42.17;18.08;100166.85;126869;1089;102868;-83
2021/06/28 08:27:30;;;;;;;2.50;2.30;;;;;;;41.77;17.94;100150.80;126765;1089;114610;-83
2021/06/28 08:30:19;;;;;;;2.60;2.30;;;;;;;41.63;17.68;100160.45;126843;1090;103010;-83
2021/06/28 08:33:07;;;;;;;2.90;2.20;;;;;;;41.58;17.92;100163.13;126857;1090;113299;-83
2021/06/28 08:35:55;;;;;;;2.70;2.20;;;;;;;41.40;18.16;100163.45;126908;1090;102886;-83
2021/06/28 08:38:43;;;;;;;3.83;2.50;;;;;;;41.46;18.58;100159.69;126839;1089;113193;-83
2021/06/28 08:41:32;;;;;;;3.00;2.30;;;;;;;41.56;18.20;100159.83;126954;1089;103017;-83
2021/06/28 08:44:20;;;;;;;2.50;2.30;;;;;;;41.54;18.56;100159.26;126744;1090;114672;-83
2021/06/28 08:47:09;;;;;;;3.03;2.73;;;;;;;41.38;18.54;100157.41;126884;1088;103012;-83
2021/06/28 08:49:58;;;;;;;2.50;2.30;;;;;;;41.44;19.03;100167.33;126773;1087;114424;-83
2021/06/28 08:52:46;;;;;;;6.10;2.60;;;;;;;41.22;18.38;100154.42;127083;1090;103078;-83
2021/06/28 08:55:35;;;;;;;3.67;2.53;;;;;;;41.03;18.49;100164.01;126939;1090;102899;-83
2021/06/28 08:58:23;;;;;;;2.47;2.27;;;;;;;40.82;18.40;100162.88;126985;1090;102971;-84
2021/06/28 09:01:12;;;;;;;5.20;2.33;;;;;;;40.20;18.88;100159.29;126958;1090;103537;-83
2021/06/28 09:04:02;;;;;;;2.43;2.10;;;;;;;40.03;19.19;100159.25;126812;1090;113221;-84
2021/06/28 09:06:50;;;;;;;2.90;2.50;;;;;;;39.36;19.05;100162.52;126994;1090;102917;-83
2021/06/28 09:09:38;;;;;;;2.70;2.50;;;;;;;39.20;19.54;100152.33;126815;1090;113423;-84
2021/06/28 09:12:25;;;;;;;2.83;2.40;;;;;;;39.16;20.09;100142.97;126875;1090;102714;-83
2021/06/28 09:15:32;;;;;;;2.20;1.93;;;;;;;39.18;19.30;100143.56;126847;1088;114250;-84
2021/06/28 09:18:24;;;;;;;3.03;2.17;;;;;;;39.11;19.79;100149.12;126909;1089;103137;-84
2021/06/28 09:21:11;;;;;;;3.00;2.00;;;;;;;39.21;19.80;100143.08;126752;1088;114328;-84
2021/06/28 09:24:01;;;;;;;2.73;2.10;;;;;;;39.23;19.48;100143.66;127021;1090;102865;-84
2021/06/28 09:26:50;;;;;;;2.63;2.20;;;;;;;39.02;19.90;100149.70;126690;1090;113202;-84
2021/06/28 09:29:49;;;;;;;1.93;1.83;;;;;;;38.67;19.75;100148.63;126928;1090;103016;-84
2021/06/28 09:32:49;;;;;;;3.90;2.27;;;;;;;38.39;20.24;100149.25;126749;1088;114568;-84
2021/06/28 09:35:39;;;;;;;2.70;2.43;;;;;;;38.17;20.55;100160.89;126905;1089;102946;-84
2021/06/28 09:38:38;;;;;;;2.40;2.20;;;;;;;37.31;20.21;100159.22;126758;1088;113590;-84
2021/06/28 09:41:33;;;;;;;2.27;2.00;;;;;;;36.14;20.50;100163.48;126942;1090;103047;-83
2021/06/28 09:44:21;;;;;;;2.63;2.10;;;;;;;35.70;21.73;100156.97;127090;1090;103019;-83
2021/06/28 09:47:13;;;;;;;2.17;1.90;;;;;;;35.83;22.20;100151.48;126635;1090;114563;-83
2021/06/28 09:50:01;;;;;;;2.43;1.83;;;;;;;36.02;22.29;100161.44;127010;1090;103080;-83
2021/06/28 09:52:59;;;;;;;1.80;1.70;;;;;;;36.15;21.23;100149.68;126725;1089;113214;-83
2021/06/28 09:55:47;;;;;;;1.93;1.80;;;;;;;36.04;21.99;100158.50;126896;1090;102920;-83
2021/06/28 09:58:34;;;;;;;2.23;2.00;;;;;;;35.74;22.50;100152.80;126921;1089;113313;-83
2021/06/28 10:01:26;;;;;;;2.20;2.07;;;;;;;35.43;22.83;100150.83;126993;1089;103275;-84
2021/06/28 10:04:41;;;;;;;2.23;2.00;;;;;;;34.82;22.18;100149.19;126682;1089;114191;-83
2021/06/28 10:07:35;;;;;;;2.30;1.90;;;;;;;34.01;23.16;100153.87;126811;1090;102868;-83
2021/06/28 10:10:28;;;;;;;2.40;2.20;;;;;;;33.82;24.00;100157.31;126773;1090;113203;-84
2021/06/28 10:13:21;;;;;;;2.65;1.95;;;;;;;34.04;24.31;100166.98;127107;1090;102882;-83
2021/06/28 10:16:09;;;;;;;2.33;2.00;;;;;;;34.43;24.47;100154.59;126694;1088;114683;-84
2021/06/28 10:18:58;;;;;;;3.90;2.20;;;;;;;34.79;24.00;100156.91;126941;1089;102908;-83
2021/06/28 10:21:46;;;;;;;2.60;2.03;;;;;;;35.00;23.81;100151.28;126781;1090;114416;-83
2021/06/28 10:24:35;;;;;;;3.40;2.40;;;;;;;35.20;22.72;100148.56;126886;1090;102991;-83
2021/06/28 10:27:26;;;;;;;2.80;2.10;;;;;;;35.17;23.02;100146.25;126631;1088;114256;-83
2021/06/28 10:30:17;;;;;;;3.20;2.43;;;;;;;35.35;23.48;100145.61;126917;1089;102862;-83
2021/06/28 10:33:09;;;;;;;2.57;2.37;;;;;;;35.59;23.91;100139.50;126869;1089;114694;-83
2021/06/28 10:36:03;;;;;;;3.87;2.10;;;;;;;35.59;23.02;100144.92;126634;1090;116217;-83
2021/06/28 10:38:54;;;;;;;1.97;1.87;;;;;;;35.58;22.94;100147.86;126869;1089;102897;-84
2021/06/28 10:41:52;;;;;;;3.67;2.00;;;;;;;35.46;22.63;100136.00;126850;1089;115195;-84
2021/06/28 10:44:50;;;;;;;2.50;2.30;;;;;;;34.95;22.59;100134.83;126849;1089;103000;-84
2021/06/28 10:47:40;;;;;;;2.50;2.30;;;;;;;34.33;22.99;100136.03;126857;1089;102977;-83
2021/06/28 10:50:47;;;;;;;2.57;2.13;;;;;;;34.26;23.50;100129.76;126907;1090;102875;-83
2021/06/28 10:53:37;;;;;;;2.60;2.03;;;;;;;34.18;23.83;100125.39;126811;1089;102695;-83
2021/06/28 10:56:29;;;;;;;5.90;2.20;;;;;;;34.11;23.60;100129.97;126961;1090;113225;-83
2021/06/28 10:59:27;;;;;;;2.13;1.90;;;;;;;34.21;24.23;100124.14;126830;1090;114787;-83
2021/06/28 11:02:19;;;;;;;2.65;2.10;;;;;;;34.13;23.73;100122.47;126871;1088;100400;-83
2021/06/28 11:05:14;;;;;;;2.40;2.20;;;;;;;34.08;23.82;100121.40;126552;1089;114913;-83
2021/06/28 11:08:21;;;;;;;2.77;2.20;;;;;;;33.78;23.56;100124.43;126859;1090;102865;-83
2021/06/28 11:11:09;;;;;;;2.20;2.00;;;;;;;33.62;24.51;100125.61;126746;1089;113589;-83
2021/06/28 11:13:57;;;;;;;3.17;2.37;;;;;;;33.67;25.00;100116.89;126926;1088;102869;-83
2021/06/28 11:17:06;;;;;;;2.20;2.00;;;;;;;33.56;24.34;100112.88;126842;1090;113349;-83
2021/06/28 11:20:07;;;;;;;3.03;2.20;;;;;;;33.19;24.45;100113.29;127132;1090;102850;-83
2021/06/28 11:23:13;;;;;;;3.50;2.33;;;;;;;32.84;25.03;100110.58;126737;1088;114725;-83
2021/06/28 11:26:01;;;;;;;2.67;2.37;;;;;;;32.36;24.53;100114.95;127048;1090;102785;-83
2021/06/28 11:28:48;;;;;;;2.10;1.85;;;;;;;32.00;24.77;100117.67;126595;1089;114695;-83
2021/06/28 11:31:36;;;;;;;2.20;1.93;;;;;;;31.86;25.18;100117.52;126881;1090;102847;-84
2021/06/28 11:34:41;;;;;;;2.10;1.90;;;;;;;31.78;25.16;100114.94;126797;1089;103000;-83
2021/06/28 11:38:19;;;;;;;2.00;1.80;;;;;;;31.56;25.18;100116.70;126875;1090;102909;-85
2021/06/28 11:41:19;;;;;;;1.97;1.87;;;;;;;31.52;26.10;100120.80;126695;1089;113653;-84
2021/06/28 11:44:27;;;;;;;2.03;1.83;;;;;;;31.55;26.10;100114.19;127053;1088;102874;-84
2021/06/28 11:47:14;;;;;;;;;;;;;;;31.48;25.91;100106.03;126684;1089;116370;-84
2021/06/28 11:50:24;;;;;;;2.33;2.13;;;;;;;31.16;25.67;100107.23;126944;1090;102849;-84
2021/06/28 11:53:14;;;;;;;1.80;1.70;;;;;;;30.89;26.17;100106.02;126859;1090;113223;-84
2021/06/28 11:56:18;;;;;;;2.20;2.10;;;;;;;31.07;26.86;100110.22;127007;1090;102924;-84
2021/06/28 11:59:11;;;;;;;4.13;1.80;;;;;;;31.07;26.45;100100.27;126685;1089;113480;-83
2021/06/28 12:02:05;;;;;;;3.83;2.00;;;;;;;31.10;26.24;100104.45;126962;1089;102901;-85
2021/06/28 12:05:00;;;;;;;1.73;1.60;;;;;;;31.09;26.55;100092.84;126787;1090;114327;-84
2021/06/28 12:07:52;;;;;;;2.60;1.70;;;;;;;31.06;26.46;100101.30;126860;1090;102962;-84
2021/06/28 12:10:42;;;;;;;2.43;1.87;;;;;;;31.23;26.70;100100.09;126923;1090;114464;-84
2021/06/28 12:13:39;;;;;;;1.70;1.60;;;;;;;31.50;25.68;100089.67;126859;1088;101730;-84
2021/06/28 12:16:28;;;;;;;;;;;;;;;31.36;25.27;100095.91;126729;1090;114466;-84
2021/06/28 12:19:17;;;;;;;1.97;1.50;;;;;;;31.18;25.16;100096.30;126793;1089;100930;-84
2021/06/28 12:22:10;;;;;;;1.60;1.50;;;;;;;30.90;25.79;100098.77;126589;1090;114446;-84
2021/06/28 12:25:11;;;;;;;2.00;1.80;;;;;;;30.84;25.97;100096.80;126858;1090;102927;-84
2021/06/28 12:27:59;;;;;;;1.70;1.60;;;;;;;30.83;26.10;100092.44;126833;1088;102978;-84
2021/06/28 12:30:47;;;;;;;2.10;1.60;;;;;;;30.77;26.30;100094.02;126934;1090;100855;-84
2021/06/28 12:33:34;;;;;;;3.30;1.50;;;;;;;30.87;26.44;100083.80;126863;1090;100926;-84
2021/06/28 12:36:22;;;;;;;3.17;1.67;;;;;;;30.91;26.15;100095.06;126718;1090;114597;-84
2021/06/28 12:39:10;;;;;;;2.07;1.83;;;;;;;30.89;26.38;100089.02;126786;1089;102905;-84
2021/06/28 12:42:14;;;;;;;2.23;1.70;;;;;;;30.63;26.40;100103.73;126679;1089;114405;-84
2021/06/28 12:45:03;;;;;;;2.03;1.87;;;;;;;30.60;26.70;100098.69;126907;1090;102978;-84
2021/06/28 12:47:55;;;;;;;3.00;2.03;;;;;;;30.49;26.92;100090.20;126757;1089;113675;-84
2021/06/28 12:50:55;;;;;;;2.90;2.60;;;;;;;30.39;26.53;100101.23;126918;1089;103116;-83
2021/06/28 12:53:44;;;;;;;1.70;1.60;;;;;;;30.17;26.86;100099.40;126689;1090;114534;-83